Racecast

Preston Ulery

Temperance Bedford (MI) · 12 · SECMI D1MONROE · Compare head to head

Athlete rating 107.4 2022 TF season
Best race 136.7 XC
Races 121
Seasons 8 2015 — 2022

RankedNation #58574·MI #2405·MI D1 #1396·SEC #157·Team #35 ?

Rating scale ?

Cross Country

2021 XC 118.1

Temperance Bedford (MI) · Grade 12

Date Meet Event Result Place Rating Difficulty PR/SR Flags
2021-11-13 Shepherd High School 5000m 18:24.1 59th · 1st on team 120.9 +0.028 ★CR CSR
2021-10-30 Lake Erie Metro Park OFFICIAL 5000m 19:14.5 36th · 4th on team 117.3 +0.055
2021-10-21 Hudson Mills Metropark - OFFICIAL 5000m 18:36.2 48th · 5th on team 120.4 +0.036 ★CR CSR
2021-10-16 Munson Park 5000m 19:43.9 16th · 3rd on team 115.2 +0.054
2021-10-02 Lake Erie Metro Park OFFICIAL 5000m 18:35.1 29th · 6th on team 122.2 +0.055 ★CR CSR
2021-09-28 Munson Park 5000m 18:42.3 45th · 5th on team 121.7 +0.054 ★CR CSR
2021-09-25 Ella Sharp Park OFFICIAL 5000m 18:11.1 107th · 3rd on team 123.5 +0.038 ★PR ★CR SR CSR RSR
2021-09-18 Ottawa Park Golf Course 5000m 18:16.4 59th · 2nd on team 114.4 -0.030 ★CR CSR
2021-09-14 Hudson Mills Metropark - OFFICIAL 5000m 18:39.8 65th · 3rd on team 120.2 +0.036 CR CSR RSR
2021-09-11 Hedges Boyer Park 5000m 18:18.4 37th · 3rd on team 113.9 -0.036 ★CR CSR RSR
2021-09-04 BGSU 5000m 18:14.4 48th · 5th on team 113.4 -0.038 PR ★CR SR CSR
2021-08-28 Walsh Park 5000m 18:51.1 33rd · 4th on team 113.8 -0.009 ★CR SR CSR RSR

2020 XC 117.5

Temperance Bedford (MI) · Grade 11

Date Meet Event Result Place Rating Difficulty PR/SR Flags
2020-10-31 Lake Erie Metro Park OFFICIAL 5000m 19:22.6 49th · 6th on team 116.7 +0.055 CSR
2020-10-24 Indian Creek OFFICIAL 5000m 18:52.8 34th · 7th on team 118.3 +0.039
2020-10-17 Indian Creek OFFICIAL 5000m 18:40 28th · 2nd on team 119.0 +0.039 ★CR CSR
2020-10-10 Howell High School 5000m 18:42 56th · 6th on team 123.6 +0.065 ★CR CSR RSR
2020-10-03 Indian Creek OFFICIAL 5000m 18:40.4 15th · 8th on team 118.8 +0.039 CR CSR RSR
2020-09-26 Indian Creek OFFICIAL 5000m 19:20.6 33rd · 10th on team 117.2 +0.039 RSR
2020-09-19 Indian Creek OFFICIAL 5000m 19:02 9th · 7th on team 116.4 +0.039 CR CSR RSR
2020-09-12 Whiteford Valley Golf Club 5000m 18:34.6 7th · 7th on team 113.6 -0.023 PR ★CR SR CSR
2020-08-29 Indian Creek OFFICIAL 5000m 19:20 9th · 6th on team 115.8 +0.039 CR SR CSR
2020-08-22 Indian Creek OFFICIAL 5000m 19:29 11th · 5th on team 115.8 +0.039 CR SR CSR RSR

2019 XC 114.5

Temperance Bedford (MI) · Grade 10

Date Meet Event Result Place Rating Difficulty PR/SR Flags
2019-10-26 Lake Erie Metro Park OFFICIAL 5000m 19:02.2 37th · 4th on team 117.9 +0.055 CR CSR RSR
2019-10-17 Hudson Mills Metropark - OFFICIAL 5000m 18:50.1 59th · 3rd on team 117.2 +0.036 CR CSR
2019-10-12 Munson Park 5000m 19:14.6 17th · 4th on team 116.7 +0.054 CR CSR
2019-10-05 Portage West MS 5000m 18:44.3 147th · 3rd on team 117.4 +0.038 PR ★CR SR CSR RSR
2019-09-28 Lake Erie Metro Park OFFICIAL 5000m 19:51.3 42nd · 4th on team 112.3 +0.055 CSR
2019-09-24 Indian Creek OFFICIAL 5000m 19:37 45th · 10th on team 113.7 +0.039 CR CSR RSR
2019-09-10 Hudson Mills Metropark - OFFICIAL 5000m 19:37 92nd · 9th on team 111.9 +0.036 CR CSR RSR
2019-09-07 Hedges Boyer Park 5000m 18:52.1 147th · 2nd on team 108.9 -0.036 PR CR SR CSR RSR

2018 XC 111.2

Temperance Bedford (MI) · Grade 9

Date Meet Event Result Place Rating Difficulty PR/SR Flags
2018-10-27 Lake Erie Metro Park OFFICIAL 5000m 20:11.8 77th · 13th on team 111.2 +0.055
2018-10-18 Hudson Mills Metropark - OFFICIAL 5000m 19:48.9 137th · 13th on team 111.0 +0.036 CR CSR
2018-10-13 Munson Park 5000m 19:24.7 13th · 5th on team 115.0 +0.054 PR CR SR CSR RSR
2018-10-09 Indian Creek OFFICIAL 5000m 20:12 15th · 12th on team 111.4 +0.039 CR CSR
2018-10-06 Portage West MS 5000m 20:41.9 350th · 13th on team 107.0 +0.038 CR CSR
2018-09-29 Lake Erie Metro Park OFFICIAL 5000m 19:41.2 68th · 12th on team 114.0 +0.055 PR CR SR CSR RSR
2018-09-25 Cass Benton Park OFFICIAL 5000m 20:27.8 56th · 6th on team 113.2 +0.091 ★CR CSR RSR
2018-09-21 Ella Sharp Park OFFICIAL 5000m 19:58.4 99th · 10th on team 111.8 +0.038 PR CR SR CSR RSR
2018-09-06 Willow Metropark OFFICIAL 5000m 20:17.5 92nd · 7th on team 109.1 +0.048 PR ★CR SR CSR RSR
2018-08-31 Oakland University 4000m 16:18.5 66th · 8th on team 108.3 +0.054 ★PR ★CR SR CSR RSR

2017 XC 124.0

Temperance Bedford (MI) · Grade 8

Date Meet Event Result Place Rating Difficulty PR/SR Flags
2017-10-21 Hudson Mills Metropark - OFFICIAL 3218m 13:22.3 5th · 1st on team 131.0 +0.062
2017-10-11 Huron Meadows Metropark OFFICIAL 3200m 13:00.4 41st · 9th on team 130.8 +0.031 ★PR ★CR SR CSR
2017-09-30 Lake Erie Metro Park OFFICIAL 3218m 12:41.2 35th · 9th on team 132.6 +0.034 ★CR CSR
2017-09-28 Hudson Mills Metropark - OFFICIAL 3218m 12:34.3 25th · 7th on team 136.7 +0.062 ★PR ★CR ★R SR CSR RSR
2017-09-23 Maumee Bay State Park 3200m 13:28.3 54th · 9th on team 118.8 -0.033 ★CR CSR
2017-09-13 Indian Creek OFFICIAL 3200m 13:25.2 37th · 8th on team 125.8 +0.038 PR ★CR SR CSR RSR
2017-09-09 Hedges Boyer Park 2816m 13:15.7 35th · 1st on team 108.2 ★PR ★CR SR CSR
2017-08-31 Eastwood HS 3200m 14:05.9 18th · 3rd on team 108.3 -0.060 ★CR SR CSR RSR

2016 XC 114.0

Temperance Bedford (MI) · Grade 7

Date Meet Event Result Place Rating Difficulty PR/SR Flags
2016-10-15 Munson Park 3200m 13:27.1 36th · 16th on team 126.0 +0.034 PR ★CR R SR CSR RSR
2016-10-12 Heritage Park (Adrian) OFFICIAL 3218m 13:49.5 62nd · 16th on team 123.9 +0.046 ★CR CSR
2016-10-08 Monroe County Comm College 3218m 13:48.9 35th · 15th on team 119.4 +0.007 PR ★CR SR CSR
2016-10-01 Pearson's Metro Park 3000m 13:55.5 79th · 16th on team 109.5 ★CR CSR
2016-09-28 Hudson Mills Metropark - OFFICIAL 3218m 13:58.7 81st · 19th on team 124.7 +0.062 PR CR R SR CSR RSR
2016-09-24 Maumee Bay State Park 3218m 14:19.5 112th · 18th on team 110.4 -0.033 PR ★CR SR CSR RSR
2016-09-14 Rolling Hills 3000m 13:40.1 74th · 19th on team 95.1 +0.071 ★PR ★CR SR CSR
2016-09-01 Eastwood HS 3200m 14:57.3 133rd · 19th on team 103.2 -0.060 PR CR SR CSR RSR

2015 XC 115.9

Temperance Bedford (MI) · Grade 6

Date Meet Event Result Place Rating Difficulty PR/SR Flags
2015-10-24 Hudson Mills Metropark - OFFICIAL 2000m 8:41 96th · 9th on team 117.4 +0.016 ★PR ★CR SR CSR
2015-10-17 Munson Park 2000m 8:51 28th · 9th on team 120.9 +0.073 PR ★CR R SR CSR RSR
2015-10-14 Munson Park 2000m 9:08.8 23rd · 10th on team 116.0 +0.073 PR CR R SR CSR RSR
2015-09-16 Mill Pond Park 2414m 12:32.3 27th · 7th on team 109.2 +0.127 ★PR ★CR R SR CSR RSR

Track & Field

2022 TF 106.0

Temperance Bedford (MI) · Grade 12

Date Meet Event Result Place Rating Difficulty PR/SR Flags
2022-05-31 Larry Steeb Meet of Champions 300mh 44.97 15th · 1st on team -0.036 ★PR SR
2022-05-20 MHSAA LP Region 04-1 @ Saline 300mh 45.88 16th · 1st on team -0.042
2022-05-13 SEC-HS: Red Division Championship 300mh 46.18 11th · 3rd on team -0.032
2022-05-13 SEC-HS: Red Division Championship 110mh 18.48 15th · 3rd on team -0.032
2022-05-09 Eagle Invite (Clay) 300mh 45.48 5th · 1st on team -0.039
2022-05-04 SEC-HS: Skyline at Bedford 300mh 45.45 3rd · 2nd on team -0.033 PR SR
2022-05-04 SEC-HS: Skyline at Bedford 1600m 5:12.5 11th · 6th on team 108.7 -0.033 ★PR SR RSR
2022-05-04 SEC-HS: Skyline at Bedford 110mh 17.82 3rd · 3rd on team -0.033 ★PR SR
2022-04-29 St. Francis Knight Relays 300mh 47.19 10th · 1st on team -0.043
2022-04-26 SEC-HS: Bedford & Monroe at Dexter 3200m 11:48.53 8th · 2nd on team 103.7 -0.036 ★PR SR
2022-04-26 SEC-HS: Bedford & Monroe at Dexter 110mh 19.82 5th · 3rd on team -0.036
2022-04-26 SEC-HS: Bedford & Monroe at Dexter 300mh 46.32 2nd · 1st on team -0.036
2022-04-23 Warrior Classic 300mh 45.72 5th · 2nd on team -0.029 PR SR
2022-04-23 Warrior Classic 110mh 19.06 12th · 2nd on team -0.029 SR
2022-04-21 SEC-HS: Saline & Bedford at Huron 300mh 46.61 5th · 2nd on team -0.034 SR
2022-04-21 SEC-HS: Saline & Bedford at Huron 110mh 19.7 10th · 2nd on team -0.034
2022-04-12 SEC-HS: Lincoln & Pioneer at Bedford 300mh 48.23 10th · 4th on team -0.034
2022-04-08 Whitmer Gold W Invitational 110mh 19.97 7th · 1st on team -0.040
2022-04-05 Bedford @ Whitmer Dual 110mh 19.65 5th · 1st on team -0.040 SR
2022-04-05 Bedford @ Whitmer Dual 300mh 47.06 4th · 2nd on team -0.040 SR
2022-03-24 '22 SEC Conference Invite 60mh 10.48 10th · 2nd on team -0.035 ★PR SR
2022-03-24 '22 SEC Conference Invite 1600m 5:20.31 38th · 3rd on team 105.6 -0.035 PR SR RSR

2021 TF 102.3

Temperance Bedford (MI) · Grade 11

Date Meet Event Result Place Rating Difficulty PR/SR Flags
2021-05-19 Lincoln JV Invite 300mh 46.6 2nd · 1st on team -0.032 PR SR
2021-05-19 Lincoln JV Invite 110mh 20.47 5th · 1st on team -0.032
2021-05-14 SEC-HS: Championship (Red) 300mh 46.64 10th · 3rd on team -0.033 PR SR
2021-05-11 SEC-HS: Bedford & Ypsi vs Skyline (@Lincoln) 1600m 5:36.99 8th · 3rd on team 101.5 -0.032
2021-05-11 SEC-HS: Bedford & Ypsi vs Skyline (@Lincoln) 110mh 18.56 3rd · 3rd on team -0.032 PR SR
2021-05-11 SEC-HS: Bedford & Ypsi vs Skyline (@Lincoln) 300mh 48.08 2nd · 1st on team -0.032
2021-05-07 Clay Eagle Invite 3200m 11:53.95 8th · 2nd on team 102.6 -0.039 PR SR
2021-05-04 SEC-HS: Bedford at Monroe 300mh 46.96 2nd · 2nd on team -0.032 PR SR
2021-05-04 SEC-HS: Bedford at Monroe 110mh 19.94 1st · 1st on team -0.032 PR SR
2021-05-04 SEC-HS: Bedford at Monroe 3200m 11:54.76 3rd · 2nd on team 103.4 -0.032 PR SR RSR
2021-04-27 SEC-HS: Bedford at AA Pioneer 3200m 12:15.42 8th · 2nd on team 101.7 -0.028 SR
2021-04-27 SEC-HS: Bedford at AA Pioneer 300mh 49.99 5th · 3rd on team -0.028 PR SR
2021-04-09 Whitmer Gold W Invitational 1600m 5:33.18 8th · 1st on team 102.2 -0.040 PR SR
2021-03-30 Bedford at Whitmer 300mh 50.24 7th · 4th on team -0.040 PR SR
2021-03-26 SEC Conference Invite 800m 2:28.78 8th · 1st on team 102.5 -0.035 ★PR SR RSR

2019 TF 98.2

Temperance Bedford (MI) · Grade 9

Date Meet Event Result Place Rating Difficulty PR/SR Flags
2019-05-23 Freshman Beck Invitational 300mh 53.44 2nd · 1st on team -0.022
2019-05-23 Freshman Beck Invitational 110mh 21.94 2nd · 1st on team -0.022
2019-05-15 Eagle Invite 1600m 5:44.88 93rd · 8th on team 99.3 -0.033 PR SR
2019-05-15 Eagle Invite 300mh 54.2 15th · 3rd on team -0.033
2019-04-30 SEC-R: Monroe & Bedford @ Skyline 3200m 11:55.44 16th · 7th on team 103.4 -0.033 PR SR RSR
2019-04-30 SEC-R: Monroe & Bedford @ Skyline 300mh 52.63 10th · 3rd on team -0.033
2019-04-25 Knight Classic Freshman Invitational hj NH -0.043
2019-04-25 Knight Classic Freshman Invitational 110mh 22.92 5th · 1st on team -0.043
2019-04-25 Knight Classic Freshman Invitational 300mh 53.84 4th · 1st on team -0.043
2019-04-23 SEC Red Division - Bedford vs Saline 3200m 12:54.53 13th · 7th on team 96.4 -0.033 PR SR
2019-04-23 SEC Red Division - Bedford vs Saline 300mh 54.55 10th · 4th on team -0.033
2019-04-11 Titan Freshman Invitational 300mh 55.48 4th · 1st on team -0.042
2019-04-11 Titan Freshman Invitational 110mh 21.84 6th · 1st on team -0.042
2019-04-09 SEC-R: Bedford @ Pioneer 1600m 6:05.27 30th · 13th on team 94.5 -0.028 SR
2019-04-09 SEC-R: Bedford @ Pioneer 300mh 52.9 7th · 3rd on team -0.028
2019-04-09 SEC-R: Bedford @ Pioneer 100m 14.69 41st · 22nd on team -0.028 ★PR SR
2019-04-04 Whitmer Freshman Invitational 300mh 51.59 1st · 1st on team -0.040
2019-04-04 Whitmer Freshman Invitational 110mh 21 1st · 1st on team -0.040 PR SR
2019-03-23 Bedford @ Ida Scrimmage 300mh 51.55 8th · 6th on team -0.022 PR SR
2019-03-23 Bedford @ Ida Scrimmage 800m 2:38.62 10th · 6th on team 97.2 -0.022 PR SR RSR

2018 TF 110.9

Temperance Bedford (MI) · Grade 8

Date Meet Event Result Place Rating Difficulty PR/SR Flags
2018-05-16 Hornet MS Relays 1600m 6:01.52 40th · 3rd on team 110.9 -0.038 PR SR RSR

2017 TF 101.3

Temperance Bedford (MI) · Grade 7

Date Meet Event Result Place Rating Difficulty PR/SR Flags
2017-05-15 SEC MS: Mill Creek (Dexter) vs. Bedford 70m 11.26 14th · 6th on team -0.036 ★PR SR
2017-05-15 SEC MS: Mill Creek (Dexter) vs. Bedford 200mh 36.69 8th · 3rd on team -0.036 ★PR SR
2017-05-15 SEC MS: Mill Creek (Dexter) vs. Bedford 1600m 6:34.81 7th · 4th on team 101.3 -0.036 PR SR RSR